AAY555 KRDU-KDAY
Flight info
| Callsign | AAY555 |
|---|---|
| Flight time | 1h 27m |
| Altitude | 34000 |
| Route | SHPRD4 SHPRD HMV/N0458F350 SITTR/N0461F340 TARCI LAYED APE DANEI3 |
| Aircraft | A320/M-SDE3FGHIRWY/LB1 |
Departure
| Time | 2026-04-22 23:43 |
|---|---|
| Airport | Raleigh-Durham International Airport (KRDU) |
Arrival
| Time | 2026-04-23 01:11 |
|---|---|
| Airport | James M. Cox Dayton International Airport (KDAY) |
| Time | Latitude | Longitude | Altitude | Speed | Heading |
|---|---|---|---|---|---|
| 2026-04-22 23:21 | 35.87371 | -78.78983 | 424 ft | 0 kts | 315° |
| 2026-04-22 23:35 | 35.87369 | -78.78980 | 418 ft | 2 kts | 315° |
| 2026-04-22 23:36 | 35.87357 | -78.78967 | 422 ft | 2 kts | 320° |
| 2026-04-22 23:36 | 35.87345 | -78.78954 | 433 ft | 2 kts | 323° |
| 2026-04-22 23:36 | 35.87331 | -78.78943 | 422 ft | 2 kts | 330° |
| 2026-04-22 23:36 | 35.87317 | -78.78934 | 430 ft | 2 kts | 343° |
| 2026-04-22 23:37 | 35.87306 | -78.78930 | 422 ft | 2 kts | 356° |
| 2026-04-22 23:37 | 35.87284 | -78.78934 | 426 ft | 2 kts | 32° |
| 2026-04-22 23:37 | 35.87276 | -78.78940 | 426 ft | 1 kts | 44° |
| 2026-04-22 23:37 | 35.87274 | -78.78943 | 428 ft | 0 kts | 46° |
| 2026-04-22 23:39 | 35.87278 | -78.78938 | 433 ft | 4 kts | 46° |
| 2026-04-22 23:39 | 35.87312 | -78.78892 | 429 ft | 8 kts | 48° |
| 2026-04-22 23:40 | 35.87352 | -78.78836 | 420 ft | 9 kts | 49° |
| 2026-04-22 23:40 | 35.87393 | -78.78780 | 423 ft | 9 kts | 46° |
| 2026-04-22 23:40 | 35.87451 | -78.78707 | 427 ft | 15 kts | 45° |
| 2026-04-22 23:40 | 35.87532 | -78.78606 | 427 ft | 17 kts | 45° |
| 2026-04-22 23:41 | 35.87621 | -78.78497 | 433 ft | 19 kts | 44° |
| 2026-04-22 23:41 | 35.87722 | -78.78373 | 422 ft | 22 kts | 45° |
| 2026-04-22 23:41 | 35.87828 | -78.78242 | 424 ft | 22 kts | 45° |
| 2026-04-22 23:41 | 35.87927 | -78.78119 | 416 ft | 16 kts | 45° |
| 2026-04-22 23:42 | 35.87952 | -78.78087 | 426 ft | 0 kts | 47° |
| 2026-04-22 23:42 | 35.87964 | -78.78054 | 430 ft | 7 kts | 88° |
| 2026-04-22 23:42 | 35.87944 | -78.78000 | 424 ft | 12 kts | 133° |
| 2026-04-22 23:42 | 35.87862 | -78.78015 | 421 ft | 14 kts | 223° |
| 2026-04-22 23:43 | 35.87753 | -78.78148 | 420 ft | 49 kts | 225° |
| 2026-04-22 23:43 | 35.87321 | -78.78680 | 430 ft | 122 kts | 225° |
| 2026-04-22 23:43 | 35.86594 | -78.79589 | 481 ft | 168 kts | 233° |
| 2026-04-22 23:43 | 35.85816 | -78.80619 | 1138 ft | 161 kts | 228° |
| 2026-04-22 23:44 | 35.85070 | -78.81620 | 1955 ft | 156 kts | 229° |
| 2026-04-22 23:44 | 35.84320 | -78.82648 | 2388 ft | 170 kts | 230° |
| 2026-04-22 23:44 | 35.83478 | -78.83806 | 2599 ft | 194 kts | 230° |
| 2026-04-22 23:44 | 35.82571 | -78.85139 | 2915 ft | 214 kts | 241° |
| 2026-04-22 23:45 | 35.82185 | -78.86973 | 3308 ft | 236 kts | 270° |
| 2026-04-22 23:45 | 35.82307 | -78.89048 | 4009 ft | 246 kts | 272° |
| 2026-04-22 23:45 | 35.82387 | -78.91177 | 4899 ft | 250 kts | 272° |
| 2026-04-22 23:45 | 35.82445 | -78.93326 | 5799 ft | 253 kts | 272° |
| 2026-04-22 23:46 | 35.82500 | -78.95504 | 6682 ft | 256 kts | 273° |
| 2026-04-22 23:46 | 35.82558 | -78.97701 | 7529 ft | 258 kts | 273° |
| 2026-04-22 23:46 | 35.82623 | -78.99930 | 8373 ft | 262 kts | 274° |
| 2026-04-22 23:46 | 35.82692 | -79.02182 | 9217 ft | 265 kts | 274° |
| 2026-04-22 23:47 | 35.82763 | -79.04457 | 10055 ft | 268 kts | 274° |
| 2026-04-22 23:47 | 35.82839 | -79.06828 | 10432 ft | 288 kts | 274° |
| 2026-04-22 23:47 | 35.82922 | -79.09394 | 10654 ft | 311 kts | 274° |
| 2026-04-22 23:47 | 35.83010 | -79.12149 | 10972 ft | 329 kts | 274° |
| 2026-04-22 23:48 | 35.83096 | -79.14992 | 11616 ft | 334 kts | 275° |
| 2026-04-22 23:48 | 35.83179 | -79.17869 | 12340 ft | 338 kts | 275° |
| 2026-04-22 23:48 | 35.83262 | -79.20771 | 13067 ft | 341 kts | 275° |
| 2026-04-22 23:48 | 35.83347 | -79.23663 | 13788 ft | 343 kts | 276° |
| 2026-04-22 23:49 | 35.83435 | -79.26617 | 14403 ft | 347 kts | 275° |
| 2026-04-22 23:49 | 35.83518 | -79.29614 | 14972 ft | 353 kts | 273° |
| 2026-04-22 23:49 | 35.83357 | -79.32660 | 15524 ft | 360 kts | 268° |
| 2026-04-22 23:49 | 35.83125 | -79.35754 | 16075 ft | 365 kts | 268° |
| 2026-04-22 23:50 | 35.82884 | -79.38888 | 16634 ft | 370 kts | 268° |
| 2026-04-22 23:50 | 35.82639 | -79.42063 | 17180 ft | 375 kts | 268° |
| 2026-04-22 23:50 | 35.82392 | -79.45277 | 17724 ft | 379 kts | 268° |
| 2026-04-22 23:50 | 35.82141 | -79.48535 | 18274 ft | 384 kts | 267° |
| 2026-04-22 23:51 | 35.81888 | -79.51832 | 18772 ft | 389 kts | 267° |
| 2026-04-22 23:51 | 35.81491 | -79.55143 | 19276 ft | 394 kts | 261° |
| 2026-04-22 23:51 | 35.80931 | -79.58459 | 19800 ft | 397 kts | 261° |
| 2026-04-22 23:51 | 35.80360 | -79.61799 | 20325 ft | 400 kts | 261° |
| 2026-04-22 23:52 | 35.79783 | -79.65165 | 20808 ft | 403 kts | 260° |
| 2026-04-22 23:52 | 35.79201 | -79.68550 | 21271 ft | 406 kts | 260° |
| 2026-04-22 23:52 | 35.78617 | -79.71966 | 21760 ft | 409 kts | 261° |
| 2026-04-22 23:52 | 35.78033 | -79.75399 | 22235 ft | 411 kts | 261° |
| 2026-04-22 23:53 | 35.77446 | -79.78861 | 22703 ft | 414 kts | 261° |
| 2026-04-22 23:53 | 35.76853 | -79.82338 | 23041 ft | 417 kts | 261° |
| 2026-04-22 23:53 | 35.76253 | -79.85837 | 23116 ft | 417 kts | 260° |
| 2026-04-22 23:53 | 35.75648 | -79.89327 | 23118 ft | 417 kts | 260° |
| 2026-04-22 23:54 | 35.75041 | -79.92825 | 23117 ft | 417 kts | 260° |
| 2026-04-22 23:54 | 35.74435 | -79.96313 | 23121 ft | 417 kts | 260° |
| 2026-04-22 23:54 | 35.73827 | -79.99809 | 23114 ft | 417 kts | 260° |
| 2026-04-22 23:54 | 35.73222 | -80.03296 | 23116 ft | 417 kts | 260° |
| 2026-04-22 23:55 | 35.72616 | -80.06790 | 23115 ft | 417 kts | 260° |
| 2026-04-22 23:55 | 35.72012 | -80.10277 | 23098 ft | 417 kts | 260° |
| 2026-04-22 23:55 | 35.71405 | -80.13771 | 23101 ft | 417 kts | 260° |
| 2026-04-22 23:55 | 35.70795 | -80.17256 | 23095 ft | 417 kts | 260° |
| 2026-04-22 23:56 | 35.70178 | -80.20763 | 23104 ft | 419 kts | 260° |
| 2026-04-22 23:56 | 35.69574 | -80.24218 | 23101 ft | 419 kts | 260° |
| 2026-04-22 23:56 | 35.68962 | -80.27727 | 23194 ft | 422 kts | 260° |
| 2026-04-22 23:56 | 35.68334 | -80.31315 | 23662 ft | 424 kts | 260° |
| 2026-04-22 23:57 | 35.67713 | -80.34818 | 24011 ft | 427 kts | 260° |
| 2026-04-22 23:57 | 35.67069 | -80.38445 | 24361 ft | 429 kts | 260° |
| 2026-04-22 23:57 | 35.66555 | -80.42013 | 24689 ft | 429 kts | 268° |
| 2026-04-22 23:57 | 35.66531 | -80.45719 | 25026 ft | 428 kts | 277° |
| 2026-04-22 23:58 | 35.67013 | -80.49266 | 25360 ft | 427 kts | 287° |
| 2026-04-22 23:58 | 35.67993 | -80.52704 | 25674 ft | 426 kts | 297° |
| 2026-04-22 23:58 | 35.69411 | -80.55892 | 25973 ft | 426 kts | 303° |
| 2026-04-22 23:58 | 35.70935 | -80.59027 | 26282 ft | 428 kts | 303° |
| 2026-04-22 23:59 | 35.72466 | -80.62187 | 26599 ft | 430 kts | 303° |
| 2026-04-22 23:59 | 35.74002 | -80.65355 | 26918 ft | 432 kts | 303° |
| 2026-04-22 23:59 | 35.75542 | -80.68542 | 27223 ft | 433 kts | 303° |
| 2026-04-22 23:59 | 35.77079 | -80.71739 | 27527 ft | 435 kts | 303° |
| 2026-04-23 00:00 | 35.80171 | -80.78176 | 28097 ft | 438 kts | 303° |
| 2026-04-23 00:00 | 35.81729 | -80.81414 | 28373 ft | 440 kts | 303° |
| 2026-04-23 00:00 | 35.83288 | -80.84657 | 28636 ft | 441 kts | 303° |
| 2026-04-23 00:01 | 35.84852 | -80.87921 | 28891 ft | 442 kts | 303° |
| 2026-04-23 00:01 | 35.86417 | -80.91189 | 29089 ft | 444 kts | 303° |
| 2026-04-23 00:01 | 35.87984 | -80.94466 | 29384 ft | 444 kts | 303° |
| 2026-04-23 00:01 | 35.89543 | -80.97732 | 29705 ft | 444 kts | 303° |
| 2026-04-23 00:02 | 35.91102 | -81.01001 | 30063 ft | 443 kts | 303° |
| 2026-04-23 00:02 | 35.92665 | -81.04276 | 30381 ft | 441 kts | 303° |
| 2026-04-23 00:02 | 35.94217 | -81.07529 | 30690 ft | 440 kts | 303° |
| 2026-04-23 00:02 | 35.95770 | -81.10783 | 30984 ft | 439 kts | 303° |
| 2026-04-23 00:03 | 35.97319 | -81.14028 | 31271 ft | 438 kts | 303° |
| 2026-04-23 00:03 | 35.98862 | -81.17266 | 31554 ft | 438 kts | 303° |
| 2026-04-23 00:03 | 36.00404 | -81.20502 | 31830 ft | 437 kts | 303° |
| 2026-04-23 00:03 | 36.01943 | -81.23748 | 32117 ft | 437 kts | 303° |
| 2026-04-23 00:04 | 36.03470 | -81.26978 | 32421 ft | 436 kts | 303° |
| 2026-04-23 00:04 | 36.05001 | -81.30211 | 32693 ft | 435 kts | 303° |
| 2026-04-23 00:04 | 36.06530 | -81.33446 | 32947 ft | 435 kts | 303° |
| 2026-04-23 00:04 | 36.08057 | -81.36679 | 33221 ft | 435 kts | 303° |
| 2026-04-23 00:05 | 36.09583 | -81.39904 | 33484 ft | 435 kts | 303° |
| 2026-04-23 00:05 | 36.11109 | -81.43126 | 33747 ft | 434 kts | 303° |
| 2026-04-23 00:05 | 36.12635 | -81.46349 | 34004 ft | 434 kts | 303° |
| 2026-04-23 00:05 | 36.14154 | -81.49573 | 34111 ft | 435 kts | 303° |
| 2026-04-23 00:06 | 36.15674 | -81.52811 | 34138 ft | 435 kts | 302° |
| 2026-04-23 00:06 | 36.18710 | -81.59292 | 34113 ft | 435 kts | 302° |
| 2026-04-23 00:07 | 36.21750 | -81.65771 | 34117 ft | 435 kts | 303° |
| 2026-04-23 00:07 | 36.24784 | -81.72230 | 34122 ft | 433 kts | 302° |
| 2026-04-23 00:08 | 36.27802 | -81.78688 | 34127 ft | 433 kts | 302° |
| 2026-04-23 00:08 | 36.30792 | -81.85117 | 34128 ft | 433 kts | 302° |
| 2026-04-23 00:09 | 36.33804 | -81.91591 | 34131 ft | 434 kts | 302° |
| 2026-04-23 00:09 | 36.36820 | -81.98073 | 34126 ft | 434 kts | 302° |
| 2026-04-23 00:10 | 36.40028 | -82.04363 | 34126 ft | 429 kts | 316° |
| 2026-04-23 00:10 | 36.42336 | -82.06664 | 34127 ft | 425 kts | 332° |
| 2026-04-23 00:10 | 36.45063 | -82.08009 | 34123 ft | 423 kts | 347° |
| 2026-04-23 00:10 | 36.47994 | -82.08304 | 34120 ft | 425 kts | 4° |
| 2026-04-23 00:11 | 36.50882 | -82.07515 | 34118 ft | 429 kts | 19° |
| 2026-04-23 00:11 | 36.56127 | -82.03890 | 34106 ft | 433 kts | 27° |
| 2026-04-23 00:12 | 36.61300 | -82.00047 | 34132 ft | 434 kts | 27° |
| 2026-04-23 00:12 | 36.66488 | -81.96189 | 34134 ft | 435 kts | 27° |
| 2026-04-23 00:13 | 36.71690 | -81.92337 | 34133 ft | 435 kts | 27° |
| 2026-04-23 00:13 | 36.76903 | -81.88483 | 34141 ft | 435 kts | 27° |
| 2026-04-23 00:14 | 36.82107 | -81.84622 | 34139 ft | 435 kts | 27° |
| 2026-04-23 00:14 | 36.87279 | -81.80781 | 34152 ft | 435 kts | 27° |
| 2026-04-23 00:15 | 36.92479 | -81.76913 | 34156 ft | 435 kts | 27° |
| 2026-04-23 00:15 | 36.97683 | -81.73035 | 34167 ft | 436 kts | 27° |
| 2026-04-23 00:16 | 37.02887 | -81.69143 | 34166 ft | 436 kts | 27° |
| 2026-04-23 00:16 | 37.08091 | -81.65248 | 34173 ft | 435 kts | 27° |
| 2026-04-23 00:17 | 37.13282 | -81.61361 | 34170 ft | 435 kts | 27° |
| 2026-04-23 00:17 | 37.18471 | -81.57477 | 34175 ft | 434 kts | 27° |
| 2026-04-23 00:18 | 37.23646 | -81.53582 | 34144 ft | 433 kts | 27° |
| 2026-04-23 00:18 | 37.28814 | -81.49691 | 34166 ft | 433 kts | 27° |
| 2026-04-23 00:19 | 37.34048 | -81.46009 | 34158 ft | 427 kts | 16° |
| 2026-04-23 00:19 | 37.36907 | -81.45162 | 34160 ft | 421 kts | 2° |
| 2026-04-23 00:19 | 37.39810 | -81.45318 | 34153 ft | 416 kts | 347° |
| 2026-04-23 00:20 | 37.45351 | -81.47398 | 34146 ft | 416 kts | 341° |
| 2026-04-23 00:20 | 37.50869 | -81.49609 | 34132 ft | 416 kts | 342° |
| 2026-04-23 00:21 | 37.56395 | -81.51814 | 34119 ft | 417 kts | 342° |
| 2026-04-23 00:21 | 37.61928 | -81.54012 | 34119 ft | 417 kts | 342° |
| 2026-04-23 00:22 | 37.67427 | -81.56201 | 34127 ft | 417 kts | 342° |
| 2026-04-23 00:22 | 37.72961 | -81.58416 | 34122 ft | 417 kts | 342° |
| 2026-04-23 00:23 | 37.78499 | -81.60635 | 34121 ft | 417 kts | 342° |
| 2026-04-23 00:23 | 37.84028 | -81.62854 | 34115 ft | 417 kts | 341° |
| 2026-04-23 00:24 | 37.89558 | -81.65081 | 34109 ft | 417 kts | 342° |
| 2026-04-23 00:24 | 37.95093 | -81.67307 | 34092 ft | 418 kts | 342° |
| 2026-04-23 00:25 | 38.00639 | -81.69533 | 34084 ft | 418 kts | 342° |
| 2026-04-23 00:25 | 38.06187 | -81.71768 | 34083 ft | 418 kts | 342° |
| 2026-04-23 00:26 | 38.11727 | -81.74014 | 34077 ft | 418 kts | 341° |
| 2026-04-23 00:26 | 38.17272 | -81.76264 | 34077 ft | 418 kts | 341° |
| 2026-04-23 00:27 | 38.22811 | -81.78514 | 34070 ft | 418 kts | 341° |
| 2026-04-23 00:27 | 38.28358 | -81.80763 | 34072 ft | 418 kts | 341° |
| 2026-04-23 00:28 | 38.32966 | -81.82637 | 34071 ft | 418 kts | 341° |
| 2026-04-23 00:28 | 38.38513 | -81.84893 | 34085 ft | 418 kts | 341° |
| 2026-04-23 00:29 | 38.44051 | -81.87153 | 34085 ft | 418 kts | 341° |
| 2026-04-23 00:29 | 38.49584 | -81.89412 | 34084 ft | 417 kts | 341° |
| 2026-04-23 00:30 | 38.55112 | -81.91678 | 34079 ft | 417 kts | 341° |
| 2026-04-23 00:30 | 38.60637 | -81.93950 | 34075 ft | 417 kts | 341° |
| 2026-04-23 00:31 | 38.66155 | -81.96221 | 34084 ft | 417 kts | 341° |
| 2026-04-23 00:31 | 38.71678 | -81.98491 | 34082 ft | 417 kts | 341° |
| 2026-04-23 00:32 | 38.77199 | -82.00762 | 34082 ft | 416 kts | 341° |
| 2026-04-23 00:32 | 38.82449 | -82.03761 | 34078 ft | 415 kts | 327° |
| 2026-04-23 00:33 | 38.87205 | -82.07872 | 34098 ft | 415 kts | 327° |
| 2026-04-23 00:33 | 38.91966 | -82.12037 | 34093 ft | 414 kts | 327° |
| 2026-04-23 00:34 | 38.96720 | -82.16200 | 34085 ft | 413 kts | 327° |
| 2026-04-23 00:34 | 39.01478 | -82.20355 | 33943 ft | 414 kts | 327° |
| 2026-04-23 00:34 | 39.03854 | -82.22432 | 33674 ft | 413 kts | 327° |
| 2026-04-23 00:35 | 39.06235 | -82.24516 | 33463 ft | 414 kts | 327° |
| 2026-04-23 00:35 | 39.08608 | -82.26596 | 33583 ft | 413 kts | 327° |
| 2026-04-23 00:35 | 39.10983 | -82.28682 | 33872 ft | 412 kts | 327° |
| 2026-04-23 00:35 | 39.13348 | -82.30758 | 34037 ft | 411 kts | 327° |
| 2026-04-23 00:36 | 39.15713 | -82.32831 | 34066 ft | 410 kts | 327° |
| 2026-04-23 00:36 | 39.20425 | -82.36971 | 34074 ft | 410 kts | 327° |
| 2026-04-23 00:37 | 39.25126 | -82.41121 | 34060 ft | 410 kts | 327° |
| 2026-04-23 00:37 | 39.29847 | -82.45279 | 34070 ft | 411 kts | 326° |
| 2026-04-23 00:38 | 39.34563 | -82.49456 | 34071 ft | 411 kts | 327° |
| 2026-04-23 00:38 | 39.39252 | -82.53648 | 34061 ft | 409 kts | 327° |
| 2026-04-23 00:39 | 39.43941 | -82.57818 | 34055 ft | 409 kts | 327° |
| 2026-04-23 00:39 | 39.48635 | -82.61980 | 34077 ft | 409 kts | 327° |
| 2026-04-23 00:40 | 39.53297 | -82.66119 | 34080 ft | 409 kts | 327° |
| 2026-04-23 00:40 | 39.55647 | -82.68212 | 33950 ft | 410 kts | 327° |
| 2026-04-23 00:40 | 39.57993 | -82.70303 | 33697 ft | 410 kts | 327° |
| 2026-04-23 00:40 | 39.60346 | -82.72403 | 33423 ft | 410 kts | 326° |
| 2026-04-23 00:41 | 39.62695 | -82.74507 | 33164 ft | 411 kts | 326° |
| 2026-04-23 00:41 | 39.65055 | -82.76622 | 32904 ft | 412 kts | 326° |
| 2026-04-23 00:41 | 39.67417 | -82.78740 | 32632 ft | 414 kts | 326° |
| 2026-04-23 00:41 | 39.69798 | -82.80875 | 32373 ft | 417 kts | 326° |
| 2026-04-23 00:42 | 39.72184 | -82.83015 | 32053 ft | 418 kts | 326° |
| 2026-04-23 00:42 | 39.74583 | -82.85166 | 31801 ft | 419 kts | 326° |
| 2026-04-23 00:42 | 39.76985 | -82.87317 | 31549 ft | 420 kts | 326° |
| 2026-04-23 00:42 | 39.79394 | -82.89480 | 31300 ft | 421 kts | 326° |
| 2026-04-23 00:43 | 39.81812 | -82.91657 | 31062 ft | 423 kts | 326° |
| 2026-04-23 00:43 | 39.84229 | -82.93835 | 30806 ft | 423 kts | 326° |
| 2026-04-23 00:43 | 39.86650 | -82.96017 | 30578 ft | 424 kts | 326° |
| 2026-04-23 00:43 | 39.89080 | -82.98209 | 30344 ft | 425 kts | 326° |
| 2026-04-23 00:44 | 39.91515 | -83.00407 | 30118 ft | 426 kts | 326° |
| 2026-04-23 00:44 | 39.93952 | -83.02607 | 29811 ft | 427 kts | 326° |
| 2026-04-23 00:44 | 39.96403 | -83.04820 | 29484 ft | 429 kts | 326° |
| 2026-04-23 00:44 | 39.98860 | -83.07040 | 28957 ft | 430 kts | 325° |
| 2026-04-23 00:45 | 40.01320 | -83.09269 | 28415 ft | 432 kts | 325° |
| 2026-04-23 00:45 | 40.03794 | -83.11516 | 27875 ft | 434 kts | 325° |
| 2026-04-23 00:45 | 40.06271 | -83.13766 | 27184 ft | 434 kts | 325° |
| 2026-04-23 00:45 | 40.08737 | -83.16005 | 26504 ft | 431 kts | 326° |
| 2026-04-23 00:46 | 40.11198 | -83.18238 | 25805 ft | 428 kts | 325° |
| 2026-04-23 00:46 | 40.13614 | -83.20490 | 25077 ft | 425 kts | 321° |
| 2026-04-23 00:46 | 40.15700 | -83.23190 | 24371 ft | 422 kts | 310° |
| 2026-04-23 00:46 | 40.17288 | -83.26336 | 23700 ft | 419 kts | 298° |
| 2026-04-23 00:47 | 40.18364 | -83.29871 | 22894 ft | 419 kts | 287° |
| 2026-04-23 00:47 | 40.18870 | -83.33611 | 22098 ft | 418 kts | 276° |
| 2026-04-23 00:47 | 40.19047 | -83.37398 | 21328 ft | 415 kts | 276° |
| 2026-04-23 00:47 | 40.19221 | -83.41144 | 20573 ft | 410 kts | 276° |
| 2026-04-23 00:48 | 40.19396 | -83.44843 | 19786 ft | 405 kts | 276° |
| 2026-04-23 00:48 | 40.19569 | -83.48505 | 19084 ft | 401 kts | 276° |
| 2026-04-23 00:48 | 40.19736 | -83.52123 | 18388 ft | 397 kts | 275° |
| 2026-04-23 00:48 | 40.19899 | -83.55713 | 17594 ft | 393 kts | 275° |
| 2026-04-23 00:49 | 40.20053 | -83.59264 | 16816 ft | 389 kts | 274° |
| 2026-04-23 00:49 | 40.19937 | -83.62774 | 16072 ft | 388 kts | 264° |
| 2026-04-23 00:49 | 40.19372 | -83.66237 | 15331 ft | 392 kts | 255° |
| 2026-04-23 00:49 | 40.18366 | -83.69568 | 14604 ft | 395 kts | 248° |
| 2026-04-23 00:50 | 40.17248 | -83.72833 | 14136 ft | 388 kts | 248° |
| 2026-04-23 00:50 | 40.16164 | -83.76016 | 13762 ft | 379 kts | 248° |
| 2026-04-23 00:50 | 40.15100 | -83.79146 | 13367 ft | 374 kts | 248° |
| 2026-04-23 00:50 | 40.14052 | -83.82234 | 12977 ft | 371 kts | 248° |
| 2026-04-23 00:51 | 40.13009 | -83.85305 | 12598 ft | 368 kts | 248° |
| 2026-04-23 00:51 | 40.11973 | -83.88345 | 12246 ft | 365 kts | 248° |
| 2026-04-23 00:51 | 40.10942 | -83.91364 | 11905 ft | 360 kts | 248° |
| 2026-04-23 00:51 | 40.09929 | -83.94332 | 11344 ft | 356 kts | 248° |
| 2026-04-23 00:52 | 40.08928 | -83.97266 | 10887 ft | 349 kts | 248° |
| 2026-04-23 00:52 | 40.07961 | -84.00095 | 10753 ft | 330 kts | 248° |
| 2026-04-23 00:52 | 40.07063 | -84.02709 | 10648 ft | 302 kts | 248° |
| 2026-04-23 00:52 | 40.06229 | -84.05135 | 10335 ft | 285 kts | 249° |
| 2026-04-23 00:53 | 40.05430 | -84.07459 | 10022 ft | 280 kts | 249° |
| 2026-04-23 00:53 | 40.04639 | -84.09758 | 9854 ft | 277 kts | 249° |
| 2026-04-23 00:53 | 40.03851 | -84.12050 | 9754 ft | 276 kts | 249° |
| 2026-04-23 00:53 | 40.03065 | -84.14341 | 9495 ft | 276 kts | 248° |
| 2026-04-23 00:54 | 40.02284 | -84.16614 | 9240 ft | 274 kts | 248° |
| 2026-04-23 00:54 | 40.01507 | -84.18873 | 8987 ft | 273 kts | 248° |
| 2026-04-23 00:54 | 40.00732 | -84.21126 | 8730 ft | 272 kts | 248° |
| 2026-04-23 00:54 | 39.99957 | -84.23373 | 8373 ft | 270 kts | 248° |
| 2026-04-23 00:55 | 39.99187 | -84.25597 | 8050 ft | 266 kts | 248° |
| 2026-04-23 00:55 | 39.98448 | -84.27726 | 8020 ft | 250 kts | 248° |
| 2026-04-23 00:55 | 39.97755 | -84.29720 | 8014 ft | 233 kts | 248° |
| 2026-04-23 00:55 | 39.97101 | -84.31605 | 8012 ft | 226 kts | 248° |
| 2026-04-23 00:56 | 39.96459 | -84.33465 | 8009 ft | 225 kts | 248° |
| 2026-04-23 00:56 | 39.95818 | -84.35323 | 8007 ft | 224 kts | 248° |
| 2026-04-23 00:56 | 39.95177 | -84.37180 | 8003 ft | 224 kts | 248° |
| 2026-04-23 00:56 | 39.94536 | -84.39031 | 7952 ft | 224 kts | 248° |
| 2026-04-23 00:57 | 39.93894 | -84.40888 | 7950 ft | 224 kts | 248° |
| 2026-04-23 00:57 | 39.93252 | -84.42740 | 7951 ft | 224 kts | 248° |
| 2026-04-23 00:57 | 39.92608 | -84.44589 | 7953 ft | 224 kts | 248° |
| 2026-04-23 00:57 | 39.91963 | -84.46443 | 7957 ft | 224 kts | 248° |
| 2026-04-23 00:58 | 39.91318 | -84.48296 | 7959 ft | 224 kts | 248° |
| 2026-04-23 00:58 | 39.90676 | -84.50144 | 7964 ft | 224 kts | 248° |
| 2026-04-23 00:58 | 39.90031 | -84.51995 | 7960 ft | 224 kts | 247° |
| 2026-04-23 00:58 | 39.89383 | -84.53843 | 7964 ft | 224 kts | 247° |
| 2026-04-23 00:59 | 39.88737 | -84.55690 | 7967 ft | 224 kts | 247° |
| 2026-04-23 00:59 | 39.88089 | -84.57539 | 7971 ft | 224 kts | 247° |
| 2026-04-23 00:59 | 39.87441 | -84.59389 | 7974 ft | 224 kts | 247° |
| 2026-04-23 00:59 | 39.86795 | -84.61239 | 7915 ft | 225 kts | 247° |
| 2026-04-23 01:00 | 39.86149 | -84.63085 | 7799 ft | 224 kts | 247° |
| 2026-04-23 01:00 | 39.85503 | -84.64927 | 7672 ft | 223 kts | 247° |
| 2026-04-23 01:00 | 39.84860 | -84.66763 | 7556 ft | 222 kts | 247° |
| 2026-04-23 01:00 | 39.84220 | -84.68597 | 7432 ft | 224 kts | 247° |
| 2026-04-23 01:01 | 39.83575 | -84.70440 | 7320 ft | 224 kts | 247° |
| 2026-04-23 01:01 | 39.82931 | -84.72276 | 7199 ft | 223 kts | 247° |
| 2026-04-23 01:01 | 39.82292 | -84.74097 | 6944 ft | 225 kts | 247° |
| 2026-04-23 01:01 | 39.81640 | -84.75952 | 6587 ft | 225 kts | 246° |
| 2026-04-23 01:02 | 39.80830 | -84.77686 | 6220 ft | 227 kts | 225° |
| 2026-04-23 01:02 | 39.79440 | -84.78655 | 5837 ft | 232 kts | 193° |
| 2026-04-23 01:02 | 39.77827 | -84.78489 | 5462 ft | 239 kts | 161° |
| 2026-04-23 01:02 | 39.76484 | -84.77203 | 5094 ft | 245 kts | 129° |
| 2026-04-23 01:03 | 39.75831 | -84.75164 | 4719 ft | 249 kts | 96° |
| 2026-04-23 01:03 | 39.75850 | -84.72921 | 4345 ft | 249 kts | 85° |
| 2026-04-23 01:03 | 39.76015 | -84.70674 | 3968 ft | 250 kts | 84° |
| 2026-04-23 01:03 | 39.76197 | -84.68430 | 3597 ft | 250 kts | 84° |
| 2026-04-23 01:04 | 39.76385 | -84.66180 | 3218 ft | 250 kts | 83° |
| 2026-04-23 01:04 | 39.76567 | -84.63948 | 2989 ft | 243 kts | 82° |
| 2026-04-23 01:04 | 39.77557 | -84.59913 | 2993 ft | 233 kts | 70° |
| 2026-04-23 01:05 | 39.78097 | -84.57925 | 2984 ft | 233 kts | 69° |
| 2026-04-23 01:05 | 39.78637 | -84.55939 | 2986 ft | 233 kts | 69° |
| 2026-04-23 01:05 | 39.79177 | -84.53957 | 2976 ft | 233 kts | 69° |
| 2026-04-23 01:05 | 39.79718 | -84.51972 | 2972 ft | 232 kts | 70° |
| 2026-04-23 01:06 | 39.80071 | -84.49927 | 2969 ft | 233 kts | 85° |
| 2026-04-23 01:06 | 39.80147 | -84.47817 | 2968 ft | 234 kts | 88° |
| 2026-04-23 01:06 | 39.80182 | -84.45708 | 2966 ft | 233 kts | 89° |
| 2026-04-23 01:06 | 39.80213 | -84.43594 | 2967 ft | 234 kts | 88° |
| 2026-04-23 01:07 | 39.80528 | -84.41543 | 2967 ft | 232 kts | 63° |
| 2026-04-23 01:07 | 39.81391 | -84.39775 | 2967 ft | 230 kts | 53° |
| 2026-04-23 01:07 | 39.82276 | -84.38134 | 2953 ft | 215 kts | 53° |
| 2026-04-23 01:07 | 39.83113 | -84.36577 | 2989 ft | 211 kts | 53° |
| 2026-04-23 01:08 | 39.83946 | -84.35021 | 2889 ft | 199 kts | 53° |
| 2026-04-23 01:08 | 39.84699 | -84.33613 | 2648 ft | 187 kts | 53° |
| 2026-04-23 01:08 | 39.85409 | -84.32284 | 2418 ft | 171 kts | 53° |
| 2026-04-23 01:08 | 39.86066 | -84.31054 | 2206 ft | 161 kts | 53° |
| 2026-04-23 01:09 | 39.86695 | -84.29876 | 2003 ft | 157 kts | 54° |
| 2026-04-23 01:09 | 39.87316 | -84.28736 | 1813 ft | 152 kts | 52° |
| 2026-04-23 01:09 | 39.87918 | -84.27629 | 1636 ft | 147 kts | 56° |
| 2026-04-23 01:09 | 39.88480 | -84.26528 | 1440 ft | 145 kts | 56° |
| 2026-04-23 01:10 | 39.89060 | -84.25466 | 1244 ft | 143 kts | 57° |
| 2026-04-23 01:10 | 39.89620 | -84.24402 | 1042 ft | 141 kts | 56° |
| 2026-04-23 01:10 | 39.90128 | -84.23444 | 1018 ft | 111 kts | 56° |
| 2026-04-23 01:10 | 39.90467 | -84.22806 | 1011 ft | 58 kts | 55° |
| 2026-04-23 01:11 | 39.90632 | -84.22492 | 1014 ft | 16 kts | 55° |
| 2026-04-23 01:11 | 39.90623 | -84.22364 | 1013 ft | 17 kts | 139° |
| 2026-04-23 01:11 | 39.90516 | -84.22270 | 1011 ft | 20 kts | 145° |
| 2026-04-23 01:11 | 39.90397 | -84.22162 | 1010 ft | 22 kts | 145° |
| 2026-04-23 01:12 | 39.90273 | -84.22051 | 1010 ft | 20 kts | 146° |
| 2026-04-23 01:12 | 39.90217 | -84.21946 | 1011 ft | 12 kts | 92° |
| 2026-04-23 01:12 | 39.90206 | -84.21831 | 1012 ft | 14 kts | 121° |
| 2026-04-23 01:12 | 39.90130 | -84.21749 | 1014 ft | 15 kts | 145° |
| 2026-04-23 01:13 | 39.90048 | -84.21769 | 1014 ft | 13 kts | 232° |
| 2026-04-23 01:13 | 39.89997 | -84.21861 | 1014 ft | 11 kts | 235° |
| 2026-04-23 01:13 | 39.90011 | -84.21914 | 1014 ft | 6 kts | 328° |
| 2026-04-23 01:13 | 39.90024 | -84.21926 | 1014 ft | 0 kts | 324° |